createdAt,value
2023-04-25T00:01:44.281Z,100055.94
2023-04-25T00:06:47.490Z,100059.69
2023-04-25T00:11:50.631Z,100064.69
2023-04-25T00:16:55.163Z,100065.00
2023-04-25T00:21:58.403Z,100062.25
2023-04-25T00:27:01.202Z,100065.94
2023-04-25T00:32:05.611Z,100074.22
2023-04-25T00:37:08.496Z,100078.50
2023-04-25T00:42:12.085Z,100088.38
2023-04-25T00:47:17.610Z,100095.19
2023-04-25T00:52:20.432Z,100095.19
2023-04-25T00:57:23.201Z,100085.03
2023-04-25T01:02:28.424Z,100092.34
2023-04-25T01:07:31.521Z,100091.69
2023-04-25T01:12:34.668Z,100103.31
2023-04-25T01:17:40.352Z,100100.69
2023-04-25T01:22:44.930Z,100099.84
2023-04-25T01:27:48.585Z,100100.31
2023-04-25T01:32:52.443Z,100101.72
2023-04-25T01:37:56.646Z,100107.88
2023-04-25T01:42:59.562Z,100114.63
2023-04-25T01:48:02.754Z,100113.16
2023-04-25T01:53:07.254Z,100122.63
2023-04-25T01:58:13.230Z,100127.69
2023-04-25T02:03:34.765Z,100136.88
2023-04-25T02:08:40.899Z,100135.34
2023-04-25T02:13:43.811Z,100142.28
2023-04-25T02:19:01.139Z,100149.06
2023-04-25T02:24:06.026Z,100149.34
2023-04-25T02:29:10.982Z,100158.47
2023-04-25T02:34:13.703Z,100151.56
2023-04-25T02:39:18.016Z,100157.56
2023-04-25T02:44:21.033Z,100149.50
2023-04-25T02:49:23.801Z,100146.69
2023-04-25T02:54:30.050Z,100160.38
2023-04-25T02:59:34.068Z,100153.81
2023-04-25T03:04:36.930Z,100156.94
2023-04-25T03:09:41.061Z,100147.84
2023-04-25T03:14:44.401Z,100176.31
2023-04-25T03:19:47.336Z,100176.16
2023-04-25T03:24:52.149Z,100181.25
2023-04-25T03:29:56.255Z,100181.88
2023-04-25T03:34:59.262Z,100185.75
2023-04-25T03:40:06.092Z,100190.16
2023-04-25T03:45:28.924Z,100190.69
2023-04-25T03:50:31.792Z,100189.94
2023-04-25T03:55:36.091Z,100192.06
2023-04-25T04:00:40.200Z,100203.00
2023-04-25T04:05:43.337Z,100201.81
2023-04-25T04:10:47.743Z,100198.19
2023-04-25T04:15:51.674Z,100210.22
2023-04-25T04:20:54.732Z,100218.00
2023-04-25T04:25:59.032Z,100228.44
2023-04-25T04:31:37.173Z,100232.25
2023-04-25T04:36:40.999Z,100226.16
2023-04-25T04:41:45.296Z,100235.09
2023-04-25T04:47:07.377Z,100245.53
2023-04-25T04:52:45.531Z,100246.16
2023-04-25T04:58:08.060Z,100252.50
2023-04-25T05:03:35.583Z,100252.09
2023-04-25T05:08:48.346Z,100263.88
2023-04-25T05:14:22.788Z,100281.22
2023-04-25T05:19:41.410Z,100293.16
2023-04-25T05:24:56.167Z,100290.69
2023-04-25T05:30:19.349Z,100296.03
2023-04-25T05:35:45.022Z,100291.47
2023-04-25T05:40:48.300Z,100301.97
2023-04-25T05:46:10.144Z,100300.69
2023-04-25T05:51:30.601Z,100303.94
2023-04-25T05:57:08.814Z,100305.94
2023-04-25T06:02:13.594Z,100314.97
2023-04-25T06:07:16.948Z,100304.84
2023-04-25T06:12:19.943Z,100311.91
2023-04-25T06:17:25.769Z,100324.47
2023-04-25T06:22:28.921Z,100326.78
2023-04-25T06:27:34.768Z,100333.66
2023-04-25T06:32:40.479Z,100341.31
2023-04-25T06:37:43.344Z,100324.94
2023-04-25T06:42:46.260Z,100343.22
2023-04-25T06:48:14.568Z,100335.13
2023-04-25T06:53:17.425Z,100332.59
2023-04-25T06:58:23.743Z,100343.34
2023-04-25T07:03:38.419Z,100344.75
2023-04-25T07:08:46.049Z,100340.03
2023-04-25T07:13:48.989Z,100350.69
2023-04-25T07:18:53.330Z,100347.63
2023-04-25T07:23:56.244Z,100358.47
2023-04-25T07:29:04.318Z,100367.41
2023-04-25T07:34:08.585Z,100362.78
2023-04-25T07:39:14.209Z,100359.88
2023-04-25T07:44:17.545Z,100365.84
2023-04-25T07:49:22.288Z,100362.22
2023-04-25T07:54:26.194Z,100361.22
2023-04-25T07:59:35.696Z,100363.34
2023-04-25T08:04:41.721Z,100376.13
2023-04-25T08:09:46.384Z,100375.16
2023-04-25T08:14:58.503Z,100376.59
2023-04-25T08:20:07.469Z,100381.25
2023-04-25T08:25:11.139Z,100387.66
2023-04-25T08:30:16.010Z,100396.09
2023-04-25T08:35:21.723Z,100407.53
2023-04-25T08:40:31.048Z,100403.22
2023-04-25T08:45:41.528Z,100416.13
2023-04-25T08:50:51.413Z,100427.81
2023-04-25T08:55:56.909Z,100449.63
2023-04-25T09:01:01.064Z,100455.34
2023-04-25T09:06:10.479Z,100467.78
2023-04-25T09:11:15.318Z,100467.72
2023-04-25T09:16:22.581Z,100476.75
2023-04-25T09:21:46.632Z,100485.94
2023-04-25T09:26:50.414Z,100479.50
2023-04-25T09:31:53.360Z,100483.50
2023-04-25T09:36:57.971Z,100516.53
2023-04-25T09:42:24.833Z,100533.25
2023-04-25T09:47:29.426Z,100520.25
2023-04-25T09:52:34.216Z,100525.78
2023-04-25T09:57:54.432Z,100516.16
2023-04-25T10:02:59.434Z,100521.66
2023-04-25T10:08:26.079Z,100528.97
2023-04-25T10:13:30.640Z,100523.34
2023-04-25T10:18:34.653Z,100534.28
2023-04-25T10:23:39.829Z,100539.09
2023-04-25T10:29:00.818Z,100536.75
2023-04-25T10:34:03.806Z,100531.31
2023-04-25T10:39:10.109Z,100544.44
2023-04-25T10:44:12.837Z,100535.19
2023-04-25T10:49:32.873Z,100549.22
2023-04-25T10:54:37.107Z,100536.25
2023-04-25T10:59:41.968Z,100536.00
2023-04-25T11:04:44.852Z,100551.91
2023-04-25T11:09:49.185Z,100562.41
2023-04-25T11:14:52.875Z,100553.56
2023-04-25T11:19:56.860Z,100554.03
2023-04-25T11:25:09.268Z,100556.88
2023-04-25T11:30:13.845Z,100555.06
2023-04-25T11:35:17.569Z,100622.34
2023-04-25T11:40:22.039Z,100605.75
2023-04-25T11:45:25.743Z,100603.44
2023-04-25T11:50:30.387Z,100615.19
2023-04-25T11:55:34.538Z,100608.22
2023-04-25T12:00:37.335Z,100608.63
2023-04-25T12:05:41.196Z,100606.13
2023-04-25T12:10:47.829Z,100604.72
2023-04-25T12:15:50.916Z,100599.75
2023-04-25T12:20:54.724Z,100599.41
2023-04-25T12:25:59.007Z,100623.34
2023-04-25T12:31:04.270Z,100612.72
2023-04-25T12:36:10.190Z,100625.53
2023-04-25T12:41:14.444Z,100629.47
2023-04-25T12:46:17.360Z,100630.31
2023-04-25T12:51:21.141Z,100642.44
2023-04-25T12:56:25.841Z,100647.31
2023-04-25T13:01:28.847Z,100655.69
2023-04-25T13:06:34.735Z,100658.56
2023-04-25T13:11:38.953Z,100659.66
2023-04-25T13:16:42.233Z,100699.81
2023-04-25T13:21:45.168Z,100712.56
2023-04-25T13:26:49.415Z,100694.63
2023-04-25T13:31:52.261Z,100696.66
2023-04-25T13:36:56.014Z,100690.06
2023-04-25T13:42:01.143Z,100697.59
2023-04-25T13:47:04.232Z,100704.56
2023-04-25T13:52:07.262Z,100759.72
2023-04-25T13:57:12.107Z,100755.81
2023-04-25T14:02:15.198Z,100719.41
2023-04-25T14:07:18.845Z,100728.88
2023-04-25T14:12:23.076Z,100718.38
2023-04-25T14:17:25.890Z,100719.84
2023-04-25T14:22:28.659Z,100724.91
2023-04-25T14:27:33.212Z,100717.44
2023-04-25T14:32:36.102Z,100723.63
2023-04-25T14:37:39.212Z,100733.59
2023-04-25T14:42:43.374Z,100724.13
2023-04-25T14:47:46.927Z,100716.31
2023-04-25T14:52:49.809Z,100720.63
2023-04-25T14:57:57.313Z,100721.09
2023-04-25T15:03:00.848Z,100742.94
2023-04-25T15:08:04.302Z,100748.56
2023-04-25T15:13:08.701Z,100762.09
2023-04-25T15:18:11.488Z,100761.63
2023-04-25T15:23:15.406Z,100760.31
2023-04-25T15:28:19.852Z,100758.47
2023-04-25T15:33:22.658Z,100751.22
2023-04-25T15:38:25.542Z,100751.81
2023-04-25T15:43:29.801Z,100757.41
2023-04-25T15:48:33.232Z,100756.69
2023-04-25T15:53:36.017Z,100743.94
2023-04-25T15:58:41.307Z,100776.75
2023-04-25T16:03:44.396Z,100782.66
2023-04-25T16:08:47.264Z,100768.38
2023-04-25T16:13:51.666Z,100776.03
2023-04-25T16:18:54.588Z,100789.63
2023-04-25T16:23:57.384Z,100795.00
2023-04-25T16:29:04.256Z,100801.78
2023-04-25T16:34:07.259Z,100789.88
2023-04-25T16:39:10.084Z,100795.91
2023-04-25T16:44:14.291Z,100791.50
2023-04-25T16:49:17.126Z,100791.38
2023-04-25T16:54:19.927Z,100790.59
2023-04-25T16:59:24.053Z,100804.16
2023-04-25T17:04:27.443Z,100802.13
2023-04-25T17:09:30.627Z,100808.94
2023-04-25T17:14:37.778Z,100829.59
2023-04-25T17:19:41.230Z,100827.66
2023-04-25T17:24:45.224Z,100829.00
2023-04-25T17:29:49.467Z,100827.47
2023-04-25T17:34:52.269Z,100819.19
2023-04-25T17:39:55.879Z,100824.16
2023-04-25T17:45:00.024Z,100831.44
2023-04-25T17:50:03.251Z,100830.31
2023-04-25T17:55:07.286Z,100841.03
2023-04-25T18:00:13.060Z,100853.84
2023-04-25T18:05:16.632Z,100854.97
2023-04-25T18:10:19.738Z,100863.53
2023-04-25T18:15:25.011Z,100877.19
2023-04-25T18:20:28.633Z,100872.53
2023-04-25T18:25:34.002Z,100880.09
2023-04-25T18:30:38.836Z,100876.00
2023-04-25T18:35:51.459Z,100885.69
2023-04-25T18:41:18.162Z,100887.53
2023-04-25T18:46:25.641Z,100906.38
2023-04-25T18:51:31.397Z,100912.94
2023-04-25T18:56:34.287Z,100918.22
2023-04-25T19:01:38.406Z,100925.16
2023-04-25T19:06:41.267Z,100917.50
2023-04-25T19:11:44.108Z,100926.41
2023-04-25T19:16:48.383Z,100935.78
2023-04-25T19:21:52.463Z,100943.75
2023-04-25T19:26:55.324Z,100945.44
2023-04-25T19:31:59.738Z,100941.28
2023-04-25T19:37:04.944Z,100945.28
2023-04-25T19:42:07.825Z,100941.44
2023-04-25T19:47:12.196Z,100945.06
2023-04-25T19:52:16.269Z,100957.81
2023-04-25T19:57:19.071Z,100958.75
2023-04-25T20:02:23.332Z,100966.34
2023-04-25T20:07:26.614Z,100965.03
2023-04-25T20:12:29.433Z,100959.16
2023-04-25T20:17:33.777Z,100967.25
2023-04-25T20:22:38.682Z,100975.25
2023-04-25T20:27:41.502Z,100967.50
2023-04-25T20:32:45.653Z,100966.34
2023-04-25T20:37:48.446Z,100968.03
2023-04-25T20:42:52.268Z,100965.34
2023-04-25T20:47:56.802Z,100965.84
2023-04-25T20:52:59.628Z,100981.19
2023-04-25T20:58:03.212Z,100986.47
2023-04-25T21:03:07.907Z,100976.69
2023-04-25T21:08:10.887Z,100973.97
2023-04-25T21:13:13.823Z,100971.78
2023-04-25T21:18:21.271Z,100978.34
2023-04-25T21:23:24.104Z,100985.16
2023-04-25T21:28:27.191Z,100979.13
2023-04-25T21:33:31.674Z,100984.03
2023-04-25T21:38:34.737Z,100989.81
2023-04-25T21:43:37.739Z,100989.31
2023-04-25T21:48:44.107Z,101005.28
2023-04-25T21:53:46.931Z,101017.88
2023-04-25T21:58:50.411Z,100990.47
2023-04-25T22:03:55.103Z,101034.88
2023-04-25T22:08:58.158Z,101017.00
2023-04-25T22:14:01.165Z,101007.09
2023-04-25T22:19:07.886Z,101006.22
2023-04-25T22:24:10.769Z,101000.91
2023-04-25T22:29:13.611Z,101000.41
2023-04-25T22:34:18.107Z,101007.00
2023-04-25T22:39:20.922Z,101007.84
2023-04-25T22:44:23.699Z,101013.34
2023-04-25T22:49:27.955Z,101008.88
2023-04-25T22:54:30.869Z,101017.22
2023-04-25T22:59:36.152Z,101026.38
2023-04-25T23:04:40.436Z,101032.78
2023-04-25T23:09:45.104Z,101031.06
2023-04-25T23:14:52.812Z,101033.59
2023-04-25T23:19:57.060Z,101035.59
2023-04-25T23:25:00.024Z,101035.59
2023-04-25T23:30:02.831Z,101037.03
2023-04-25T23:35:08.213Z,101041.34
2023-04-25T23:40:12.267Z,101039.94
2023-04-25T23:45:16.538Z,101031.09
2023-04-25T23:50:20.847Z,101037.75
2023-04-25T23:55:23.609Z,101030.47
